createdAt,value
2023-02-09T00:00:21.804Z,0
2023-02-09T00:01:23.914Z,0
2023-02-09T00:02:25.972Z,0
2023-02-09T00:03:22.857Z,0
2023-02-09T00:04:35.126Z,0
2023-02-09T00:05:27.758Z,0
2023-02-09T00:06:23.537Z,0
2023-02-09T00:07:23.891Z,0
2023-02-09T00:08:38.083Z,0
2023-02-09T00:09:30.619Z,0
2023-02-09T00:10:25.857Z,0
2023-02-09T00:11:21.880Z,0
2023-02-09T00:12:28.400Z,0
2023-02-09T00:13:27.955Z,0
2023-02-09T00:14:22.313Z,0
2023-02-09T00:15:32.384Z,0
2023-02-09T00:16:26.654Z,0
2023-02-09T00:17:22.474Z,0
2023-02-09T00:18:23.423Z,0
2023-02-09T00:19:28.838Z,0
2023-02-09T00:20:23.706Z,0
2023-02-09T00:21:22.416Z,0
2023-02-09T00:22:24.463Z,0
2023-02-09T00:23:30.590Z,0
2023-02-09T00:24:21.687Z,0
2023-02-09T00:25:25.604Z,0
2023-02-09T00:26:29.632Z,0
2023-02-09T00:27:23.542Z,0
2023-02-09T00:28:20.538Z,0
2023-02-09T00:29:22.451Z,0
2023-02-09T00:30:35.143Z,0
2023-02-09T00:31:21.761Z,0
2023-02-09T00:32:29.667Z,0
2023-02-09T00:33:22.153Z,0
2023-02-09T00:34:24.258Z,0
2023-02-09T00:35:21.593Z,0
2023-02-09T00:36:25.483Z,0
2023-02-09T00:37:25.435Z,0
2023-02-09T00:38:22.223Z,0
2023-02-09T00:39:23.692Z,0
2023-02-09T00:40:28.935Z,0
2023-02-09T00:41:23.646Z,0
2023-02-09T00:42:21.297Z,0
2023-02-09T00:43:31.232Z,0
2023-02-09T00:44:22.279Z,0
2023-02-09T00:45:21.517Z,0
2023-02-09T00:46:26.758Z,0
2023-02-09T00:47:23.048Z,0
2023-02-09T00:48:24.101Z,0
2023-02-09T00:49:20.865Z,0
2023-02-09T00:50:22.949Z,0
2023-02-09T00:51:25.865Z,0
2023-02-09T00:52:22.658Z,0
2023-02-09T00:53:33.023Z,0
2023-02-09T00:54:24.786Z,0
2023-02-09T00:55:23.863Z,0
2023-02-09T00:56:19.547Z,0
2023-02-09T00:57:29.752Z,0
2023-02-09T00:58:19.489Z,0
2023-02-09T00:59:24.554Z,0
2023-02-09T01:00:36.239Z,0
2023-02-09T01:01:20.002Z,0
2023-02-09T01:02:20.659Z,0
2023-02-09T01:03:19.474Z,0
2023-02-09T01:04:29.837Z,0
2023-02-09T01:05:23.331Z,0
2023-02-09T01:06:21.966Z,0
2023-02-09T01:07:20.031Z,0
2023-02-09T01:08:27.620Z,0
2023-02-09T01:09:24.838Z,0
2023-02-09T01:10:19.943Z,0
2023-02-09T01:11:29.550Z,0
2023-02-09T01:12:40.796Z,0
2023-02-09T01:13:21.906Z,0
2023-02-09T01:14:24.363Z,0
2023-02-09T01:15:27.830Z,0
2023-02-09T01:16:20.581Z,0
2023-02-09T01:17:21.928Z,0
2023-02-09T01:18:22.207Z,0
2023-02-09T01:19:26.763Z,0
2023-02-09T01:20:21.715Z,0
2023-02-09T01:21:29.022Z,0
2023-02-09T01:22:22.281Z,0
2023-02-09T01:23:34.180Z,0
2023-02-09T01:24:19.766Z,0
2023-02-09T01:25:29.522Z,0
2023-02-09T01:26:25.585Z,0
2023-02-09T01:27:21.828Z,0
2023-02-09T01:28:32.490Z,0
2023-02-09T01:29:29.387Z,0
2023-02-09T01:30:23.665Z,0
2023-02-09T01:31:19.919Z,0
2023-02-09T01:32:23.939Z,0
2023-02-09T01:33:36.835Z,0
2023-02-09T01:34:35.832Z,0
2023-02-09T01:35:23.962Z,0
2023-02-09T01:36:32.378Z,0
2023-02-09T01:37:24.383Z,0
2023-02-09T01:38:21.666Z,0
2023-02-09T01:39:28.095Z,0
2023-02-09T01:40:19.842Z,0
2023-02-09T01:41:21.581Z,0
2023-02-09T01:42:33.601Z,0
2023-02-09T01:43:28.083Z,0
2023-02-09T01:44:25.302Z,0
2023-02-09T01:45:20.128Z,0
2023-02-09T01:46:21.191Z,0
2023-02-09T01:47:28.693Z,0
2023-02-09T01:48:22.157Z,0
2023-02-09T01:49:32.425Z,0
2023-02-09T01:50:39.557Z,0
2023-02-09T01:51:24.068Z,0
2023-02-09T01:52:21.234Z,0
2023-02-09T01:53:29.883Z,0
2023-02-09T01:54:27.489Z,0
2023-02-09T01:55:23.866Z,0
2023-02-09T01:56:33.683Z,0
2023-02-09T01:57:28.497Z,0
2023-02-09T01:58:32.458Z,0
2023-02-09T01:59:20.788Z,0
2023-02-09T02:00:25.497Z,0
2023-02-09T02:01:36.515Z,0
2023-02-09T02:02:25.578Z,0
2023-02-09T02:03:25.860Z,0
2023-02-09T02:11:37.863Z,0
2023-02-09T02:12:26.330Z,0
2023-02-09T02:13:29.241Z,0
2023-02-09T02:14:37.286Z,0
2023-02-09T02:15:28.338Z,0
2023-02-09T02:16:22.644Z,0
2023-02-09T02:23:22.107Z,0
2023-02-09T02:24:32.351Z,0
2023-02-09T02:25:22.550Z,0
2023-02-09T02:26:24.490Z,0
2023-02-09T02:27:20.026Z,0
2023-02-09T02:28:26.093Z,0
2023-02-09T02:29:26.982Z,0
2023-02-09T02:30:24.553Z,0
2023-02-09T02:31:22.988Z,0
2023-02-09T02:32:19.822Z,0
2023-02-09T02:33:19.612Z,0
2023-02-09T02:34:21.175Z,0
2023-02-09T02:35:31.186Z,0
2023-02-09T02:36:25.805Z,0
2023-02-09T02:37:21.884Z,0
2023-02-09T02:38:21.538Z,0
2023-02-09T02:39:22.908Z,0
2023-02-09T02:40:25.945Z,0
2023-02-09T02:41:20.754Z,0
2023-02-09T02:42:30.668Z,0
2023-02-09T02:43:26.374Z,0
2023-02-09T02:44:21.764Z,0
2023-02-09T02:45:25.853Z,0
2023-02-09T02:46:27.691Z,0
2023-02-09T02:47:23.631Z,0
2023-02-09T02:48:20.845Z,0
2023-02-09T02:49:32.065Z,0
2023-02-09T02:50:21.097Z,0
2023-02-09T02:51:24.414Z,0
2023-02-09T02:52:33.434Z,0
2023-02-09T02:53:23.385Z,0
2023-02-09T02:54:23.649Z,0
2023-02-09T02:55:19.898Z,0
2023-02-09T02:56:36.880Z,0
2023-02-09T02:57:26.060Z,0
2023-02-09T02:58:21.788Z,0
2023-02-09T02:59:23.545Z,0
2023-02-09T03:00:28.318Z,0
2023-02-09T03:01:22.329Z,0
2023-02-09T03:02:22.083Z,0
2023-02-09T03:03:22.489Z,0
2023-02-09T03:04:27.878Z,0
2023-02-09T03:05:22.194Z,0
2023-02-09T03:06:31.953Z,0
2023-02-09T03:07:29.346Z,0
2023-02-09T03:08:24.743Z,0
2023-02-09T03:09:21.032Z,0
2023-02-09T03:10:25.453Z,0
2023-02-09T03:11:26.082Z,0
2023-02-09T03:12:36.495Z,0
2023-02-09T03:13:31.820Z,0
2023-02-09T03:14:29.393Z,0
2023-02-09T03:15:26.804Z,0
2023-02-09T03:16:22.934Z,0
2023-02-09T03:17:31.954Z,0
2023-02-09T03:18:23.615Z,0
2023-02-09T03:19:21.571Z,0
2023-02-09T03:20:33.456Z,0
2023-02-09T03:21:27.938Z,0
2023-02-09T03:22:25.149Z,0
2023-02-09T03:23:20.560Z,0
2023-02-09T03:24:29.761Z,0
2023-02-09T03:25:27.723Z,0
2023-02-09T03:26:23.046Z,0
2023-02-09T03:27:21.371Z,0
2023-02-09T03:28:29.883Z,0
2023-02-09T03:29:24.473Z,0
2023-02-09T03:30:20.061Z,0
2023-02-09T03:31:23.805Z,0
2023-02-09T03:32:27.515Z,0
2023-02-09T03:33:26.252Z,0
2023-02-09T03:34:33.331Z,0
2023-02-09T03:35:27.852Z,0
2023-02-09T03:36:35.186Z,0
2023-02-09T03:37:20.997Z,0
2023-02-09T03:38:31.680Z,0
2023-02-09T03:39:20.618Z,0
2023-02-09T03:40:21.820Z,0
2023-02-09T03:41:22.217Z,0
2023-02-09T03:42:30.105Z,0
2023-02-09T03:43:23.853Z,0
2023-02-09T03:44:23.791Z,0
2023-02-09T03:45:33.655Z,0
2023-02-09T03:46:25.868Z,0
2023-02-09T03:47:22.667Z,0
2023-02-09T03:48:24.782Z,0
2023-02-09T03:49:28.207Z,0
2023-02-09T03:50:24.861Z,0
2023-02-09T03:51:19.923Z,0
2023-02-09T03:52:30.155Z,0
2023-02-09T03:53:27.608Z,0
2023-02-09T03:54:23.250Z,0
2023-02-09T03:55:24.766Z,0
2023-02-09T03:56:21.794Z,0
2023-02-09T03:57:24.344Z,0
2023-02-09T03:58:22.476Z,0
2023-02-09T03:59:31.436Z,0
2023-02-09T04:00:26.331Z,0
2023-02-09T04:01:28.174Z,0
2023-02-09T04:02:21.126Z,0
2023-02-09T04:03:28.069Z,0
2023-02-09T04:04:24.385Z,0
2023-02-09T04:05:20.233Z,0
2023-02-09T04:06:20.050Z,0
2023-02-09T04:07:30.388Z,0
2023-02-09T04:08:30.585Z,0
2023-02-09T04:09:23.744Z,0
2023-02-09T04:10:30.798Z,0
2023-02-09T04:11:24.037Z,0
2023-02-09T04:12:20.672Z,0
2023-02-09T04:13:23.087Z,0
2023-02-09T04:14:26.010Z,0
2023-02-09T04:15:24.166Z,0
2023-02-09T04:16:28.434Z,0
2023-02-09T04:17:21.156Z,0
2023-02-09T04:18:26.694Z,0
2023-02-09T04:19:20.739Z,0
2023-02-09T04:20:26.064Z,0
2023-02-09T04:21:27.230Z,0
2023-02-09T04:22:22.001Z,0
2023-02-09T04:23:33.808Z,0
2023-02-09T04:24:21.066Z,0
2023-02-09T04:25:23.987Z,0
2023-02-09T04:26:22.093Z,0
2023-02-09T04:27:31.216Z,0
2023-02-09T04:28:26.008Z,0
2023-02-09T04:29:25.502Z,0
2023-02-09T04:30:34.485Z,0
2023-02-09T04:31:24.487Z,0
2023-02-09T04:32:25.914Z,0
2023-02-09T04:33:20.068Z,0
2023-02-09T04:34:20.299Z,0
2023-02-09T04:35:28.001Z,0
2023-02-09T04:36:22.376Z,0
2023-02-09T04:37:32.192Z,0
2023-02-09T04:38:29.500Z,0
2023-02-09T04:39:26.579Z,0
2023-02-09T04:40:21.920Z,0
2023-02-09T04:41:24.481Z,0
2023-02-09T04:42:22.975Z,0
2023-02-09T04:43:21.891Z,0
2023-02-09T04:44:32.232Z,0
2023-02-09T04:45:32.149Z,0
2023-02-09T04:46:24.922Z,0
2023-02-09T04:47:21.361Z,0
2023-02-09T04:48:32.800Z,0
2023-02-09T04:49:21.551Z,0
2023-02-09T04:50:23.089Z,0
2023-02-09T04:51:32.107Z,0
2023-02-09T04:52:31.732Z,0
2023-02-09T04:53:20.137Z,0
2023-02-09T04:54:21.217Z,0
2023-02-09T04:55:21.918Z,0
2023-02-09T04:56:27.909Z,0
2023-02-09T04:57:23.107Z,0
2023-02-09T04:58:36.523Z,0
2023-02-09T04:59:28.998Z,0
2023-02-09T05:00:24.349Z,0
2023-02-09T05:01:20.407Z,0
2023-02-09T05:02:26.052Z,0
2023-02-09T05:03:32.950Z,0
2023-02-09T05:04:22.792Z,0
2023-02-09T05:05:32.116Z,0
2023-02-09T05:06:30.380Z,0
2023-02-09T05:07:26.357Z,0
2023-02-09T05:08:22.108Z,0
2023-02-09T05:09:32.153Z,0
2023-02-09T05:10:23.274Z,0
2023-02-09T05:11:23.769Z,0
2023-02-09T05:12:19.569Z,0
2023-02-09T05:13:29.290Z,0
2023-02-09T05:14:24.151Z,0
2023-02-09T05:15:21.983Z,0
2023-02-09T05:16:34.928Z,0
2023-02-09T05:17:27.705Z,0
2023-02-09T05:18:24.238Z,0
2023-02-09T05:19:23.701Z,0
2023-02-09T05:20:29.119Z,0
2023-02-09T05:21:24.143Z,0
2023-02-09T05:22:20.183Z,0
2023-02-09T05:23:30.418Z,0
2023-02-09T05:24:27.596Z,0
2023-02-09T05:25:28.446Z,0
2023-02-09T05:26:27.603Z,0
2023-02-09T05:27:29.006Z,0
2023-02-09T05:28:24.112Z,0
2023-02-09T05:29:22.394Z,0
2023-02-09T05:30:45.949Z,0
2023-02-09T05:31:27.895Z,0
2023-02-09T05:32:23.532Z,0
2023-02-09T05:33:21.497Z,0
2023-02-09T05:34:26.824Z,0
2023-02-09T05:35:23.992Z,0
2023-02-09T05:36:20.129Z,0
2023-02-09T05:37:32.641Z,0
2023-02-09T05:38:26.400Z,0
2023-02-09T05:39:23.379Z,0
2023-02-09T05:40:20.798Z,0
2023-02-09T05:41:28.382Z,0
2023-02-09T05:42:25.759Z,0
2023-02-09T05:43:20.040Z,0
2023-02-09T05:44:31.576Z,0
2023-02-09T05:45:26.309Z,0
2023-02-09T05:46:24.251Z,0
2023-02-09T05:47:23.251Z,0
2023-02-09T05:48:22.595Z,0
2023-02-09T05:49:25.784Z,0
2023-02-09T05:50:20.644Z,0
2023-02-09T05:51:30.415Z,0
2023-02-09T05:52:28.754Z,0
2023-02-09T05:53:22.378Z,0
2023-02-09T05:54:34.531Z,0
2023-02-09T05:55:28.236Z,0
2023-02-09T05:56:20.223Z,0
2023-02-09T05:57:24.461Z,0
2023-02-09T05:58:21.254Z,0
2023-02-09T05:59:26.524Z,0
2023-02-09T06:00:22.348Z,0
2023-02-09T06:01:29.701Z,0
2023-02-09T06:02:31.578Z,0
2023-02-09T06:03:34.211Z,0
2023-02-09T06:04:21.824Z,0
2023-02-09T06:05:21.283Z,0
2023-02-09T06:06:26.293Z,0
2023-02-09T06:07:23.963Z,0
2023-02-09T06:08:33.747Z,0
2023-02-09T06:09:28.798Z,0
2023-02-09T06:10:25.439Z,0
2023-02-09T06:11:21.562Z,0
2023-02-09T06:12:24.593Z,0
2023-02-09T06:13:27.987Z,0
2023-02-09T06:14:22.273Z,0
2023-02-09T06:15:35.887Z,0
2023-02-09T06:16:24.029Z,0
2023-02-09T06:17:24.209Z,0
2023-02-09T06:18:20.310Z,0
2023-02-09T06:19:30.535Z,0
2023-02-09T06:20:21.002Z,0
2023-02-09T06:21:22.321Z,0
2023-02-09T06:22:33.529Z,-0
2023-02-09T06:23:24.849Z,0
2023-02-09T06:24:24.586Z,0
2023-02-09T06:25:20.165Z,0
2023-02-09T06:26:23.157Z,0
2023-02-09T06:27:26.556Z,0
2023-02-09T06:28:22.265Z,0
2023-02-09T06:29:32.825Z,0
2023-02-09T06:30:28.498Z,0
2023-02-09T06:31:26.281Z,0
2023-02-09T06:32:20.221Z,0
2023-02-09T06:33:30.932Z,0
2023-02-09T06:34:20.179Z,0
2023-02-09T06:35:22.319Z,0
2023-02-09T06:36:34.383Z,0
2023-02-09T06:37:31.065Z,0
2023-02-09T06:38:20.909Z,0
2023-02-09T06:39:20.130Z,0
2023-02-09T06:40:32.625Z,0
2023-02-09T06:41:27.528Z,0
2023-02-09T06:42:27.334Z,0
2023-02-09T06:43:36.045Z,0
2023-02-09T06:44:28.461Z,0
2023-02-09T06:45:21.325Z,0
2023-02-09T06:46:20.563Z,0
2023-02-09T06:47:30.326Z,0
2023-02-09T06:48:30.355Z,0
2023-02-09T06:49:22.504Z,0
2023-02-09T06:50:24.237Z,0
2023-02-09T06:51:28.343Z,0
2023-02-09T06:52:24.489Z,0
2023-02-09T06:53:20.556Z,0
2023-02-09T06:54:30.246Z,0
2023-02-09T06:55:24.927Z,0
2023-02-09T06:56:22.695Z,0
2023-02-09T06:57:26.539Z,0
2023-02-09T06:58:28.335Z,0
2023-02-09T06:59:28.502Z,0
2023-02-09T07:00:20.718Z,0
2023-02-09T07:01:31.332Z,0
2023-02-09T07:02:26.418Z,0
2023-02-09T07:03:23.969Z,0
2023-02-09T07:04:24.034Z,0
2023-02-09T07:05:23.687Z,0
2023-02-09T07:06:21.588Z,0
2023-02-09T07:07:20.742Z,0
2023-02-09T07:08:30.683Z,1
2023-02-09T07:09:28.103Z,1
2023-02-09T07:10:24.913Z,1
2023-02-09T07:11:27.435Z,1
2023-02-09T07:12:21.718Z,1
2023-02-09T07:13:20.579Z,1
2023-02-09T07:14:20.508Z,1
2023-02-09T07:15:30.732Z,1
2023-02-09T07:16:27.956Z,1
2023-02-09T07:17:22.286Z,1
2023-02-09T07:18:33.382Z,1
2023-02-09T07:19:26.442Z,1
2023-02-09T07:20:40.272Z,1
2023-02-09T07:21:20.276Z,1
2023-02-09T07:22:32.738Z,1
2023-02-09T07:23:21.908Z,1
2023-02-09T07:24:23.659Z,1
2023-02-09T07:25:32.515Z,1
2023-02-09T07:26:28.969Z,1
2023-02-09T07:27:26.705Z,1
2023-02-09T07:28:21.645Z,1
2023-02-09T07:29:28.929Z,1
2023-02-09T07:30:26.571Z,1
2023-02-09T07:31:25.322Z,1
2023-02-09T07:32:21.698Z,1
2023-02-09T07:33:28.612Z,1
2023-02-09T07:34:27.621Z,1
2023-02-09T07:35:21.861Z,1
2023-02-09T07:36:47.915Z,1
2023-02-09T07:37:29.303Z,1
2023-02-09T07:38:22.706Z,1
2023-02-09T07:39:24.003Z,1
2023-02-09T07:40:25.117Z,1
2023-02-09T07:41:31.859Z,2
2023-02-09T07:42:23.990Z,2
2023-02-09T07:43:23.623Z,2
2023-02-09T07:44:26.646Z,2
2023-02-09T07:45:22.636Z,2
2023-02-09T07:46:30.248Z,2
2023-02-09T07:47:28.530Z,2
2023-02-09T07:48:26.540Z,2
2023-02-09T07:49:20.551Z,2
2023-02-09T07:50:22.561Z,2
2023-02-09T07:51:23.365Z,2
2023-02-09T07:52:35.964Z,2
2023-02-09T07:53:32.200Z,2
2023-02-09T07:54:28.370Z,2
2023-02-09T07:55:25.797Z,2
2023-02-09T07:56:31.620Z,2
2023-02-09T07:57:27.582Z,2
2023-02-09T07:58:23.302Z,2
2023-02-09T07:59:22.542Z,2
2023-02-09T08:00:33.318Z,2
2023-02-09T08:01:21.245Z,2
2023-02-09T08:02:25.102Z,2
2023-02-09T08:03:32.484Z,2
2023-02-09T08:04:30.296Z,2
2023-02-09T08:05:22.190Z,2
2023-02-09T08:06:25.990Z,2
2023-02-09T08:07:38.053Z,2
2023-02-09T08:08:24.059Z,2
2023-02-09T08:09:39.559Z,2
2023-02-09T08:10:20.615Z,2
2023-02-09T08:11:33.316Z,2
2023-02-09T08:12:26.868Z,2
2023-02-09T08:13:24.511Z,2
2023-02-09T08:14:29.849Z,3
2023-02-09T08:15:28.700Z,3
2023-02-09T08:16:24.434Z,3
2023-02-09T08:17:20.503Z,3
2023-02-09T08:18:32.409Z,3
2023-02-09T08:19:21.620Z,3
2023-02-09T08:20:23.851Z,3
2023-02-09T08:21:23.687Z,3
2023-02-09T08:22:29.212Z,3
2023-02-09T08:23:25.297Z,3
2023-02-09T08:24:20.351Z,3
2023-02-09T08:25:26.278Z,3
2023-02-09T08:26:26.980Z,3
2023-02-09T08:27:27.584Z,3
2023-02-09T08:28:34.849Z,3
2023-02-09T08:29:28.640Z,3
2023-02-09T08:30:25.308Z,4
2023-02-09T08:31:31.511Z,4
2023-02-09T08:32:45.748Z,4
2023-02-09T08:33:29.243Z,4
2023-02-09T08:34:32.156Z,4
2023-02-09T08:35:28.264Z,4
2023-02-09T08:36:23.029Z,4
2023-02-09T08:37:23.092Z,4
2023-02-09T08:38:49.385Z,4
2023-02-09T08:39:45.185Z,4
2023-02-09T08:40:32.096Z,4
2023-02-09T08:41:36.946Z,4
2023-02-09T08:42:29.244Z,4
2023-02-09T08:43:23.717Z,4
2023-02-09T08:44:25.122Z,5
2023-02-09T08:46:02.917Z,5
2023-02-09T08:46:47.962Z,7
2023-02-09T08:47:34.075Z,9
2023-02-09T08:48:20.478Z,8
2023-02-09T08:49:33.614Z,7
2023-02-09T08:50:27.672Z,8
2023-02-09T08:51:19.461Z,6
2023-02-09T08:53:04.553Z,5
2023-02-09T08:53:23.686Z,7
2023-02-09T08:54:38.172Z,9
2023-02-09T08:55:25.142Z,6
2023-02-09T08:56:37.560Z,5
2023-02-09T08:57:43.520Z,5
2023-02-09T08:58:23.496Z,5
2023-02-09T08:59:22.505Z,5
2023-02-09T09:00:44.126Z,6
2023-02-09T09:01:41.299Z,6
2023-02-09T09:02:28.066Z,5
2023-02-09T09:03:43.072Z,6
2023-02-09T09:04:22.932Z,5
2023-02-09T09:05:32.029Z,5
2023-02-09T09:06:22.658Z,5
2023-02-09T09:07:57.457Z,6
2023-02-09T09:08:44.327Z,6
2023-02-09T09:09:29.668Z,6
2023-02-09T09:10:27.390Z,7
2023-02-09T09:11:43.911Z,8
2023-02-09T09:12:39.604Z,7
2023-02-09T09:13:26.705Z,5
2023-02-09T09:14:21.526Z,5
2023-02-09T09:15:47.708Z,5
2023-02-09T09:16:34.504Z,5
2023-02-09T09:17:43.712Z,5
2023-02-09T09:18:47.988Z,5
2023-02-09T09:19:41.850Z,7
2023-02-09T09:20:34.605Z,5
2023-02-09T09:21:26.203Z,5
2023-02-09T09:22:37.506Z,5
2023-02-09T09:23:35.564Z,5
2023-02-09T09:24:24.292Z,5
2023-02-09T09:25:52.184Z,5
2023-02-09T09:26:44.998Z,5
2023-02-09T09:27:31.909Z,5
2023-02-09T09:28:30.535Z,5
2023-02-09T09:29:22.633Z,5
2023-02-09T09:30:40.618Z,5
2023-02-09T09:31:26.659Z,5
2023-02-09T09:32:19.936Z,5
2023-02-09T09:33:34.135Z,5
2023-02-09T09:34:35.715Z,5
2023-02-09T09:35:34.923Z,5
2023-02-09T09:36:27.770Z,5
2023-02-09T09:37:41.635Z,5
2023-02-09T09:38:24.701Z,5
2023-02-09T09:39:37.917Z,5
2023-02-09T09:40:54.089Z,5
2023-02-09T09:41:38.813Z,5
2023-02-09T09:42:25.025Z,5
2023-02-09T09:43:30.289Z,5
2023-02-09T09:44:23.230Z,6
2023-02-09T09:45:31.454Z,6
2023-02-09T09:46:57.605Z,6
2023-02-09T09:47:55.582Z,7
2023-02-09T09:48:41.807Z,8
2023-02-09T09:49:24.061Z,8
2023-02-09T09:50:34.963Z,7
2023-02-09T09:51:27.397Z,7
2023-02-09T09:52:21.951Z,7
2023-02-09T09:53:22.232Z,8
2023-02-09T09:55:00.708Z,7
2023-02-09T09:55:26.970Z,7
2023-02-09T09:56:29.469Z,8
2023-02-09T09:57:38.631Z,8
2023-02-09T09:58:33.226Z,14
2023-02-09T09:59:24.568Z,15
2023-02-09T10:00:24.972Z,10
2023-02-09T10:01:31.932Z,10
2023-02-09T10:02:47.310Z,15
2023-02-09T10:03:33.675Z,20
2023-02-09T10:04:21.700Z,18
2023-02-09T10:05:35.257Z,18
2023-02-09T10:06:25.916Z,18
2023-02-09T10:07:23.866Z,19
2023-02-09T10:08:51.232Z,12
2023-02-09T10:09:50.008Z,11
2023-02-09T10:10:36.891Z,11
2023-02-09T10:11:22.827Z,12
2023-02-09T10:12:30.726Z,10
2023-02-09T10:13:33.648Z,10
2023-02-09T10:14:26.535Z,25
2023-02-09T10:16:04.778Z,27
2023-02-09T10:16:53.384Z,11
2023-02-09T10:17:20.858Z,10
2023-02-09T10:18:27.188Z,9
2023-02-09T10:19:45.008Z,10
2023-02-09T10:20:38.142Z,10
2023-02-09T10:21:30.848Z,13
2023-02-09T10:22:22.278Z,30
2023-02-09T10:23:25.802Z,34
2023-02-09T10:24:42.602Z,24
2023-02-09T10:25:29.809Z,11
2023-02-09T10:26:49.367Z,10
2023-02-09T10:27:42.344Z,25
2023-02-09T10:28:33.638Z,31
2023-02-09T10:29:28.147Z,33
2023-02-09T10:30:45.781Z,33
2023-02-09T10:31:46.034Z,33
2023-02-09T10:32:32.845Z,35
2023-02-09T10:33:52.720Z,36
2023-02-09T10:34:24.796Z,37
2023-02-09T10:35:41.879Z,38
2023-02-09T10:36:27.388Z,38
2023-02-09T10:37:23.593Z,38
2023-02-09T10:38:50.099Z,38
2023-02-09T10:39:36.128Z,38
2023-02-09T10:40:23.280Z,38
2023-02-09T10:41:40.348Z,38
2023-02-09T10:42:44.548Z,38
2023-02-09T10:43:30.712Z,38
2023-02-09T10:44:27.064Z,37
2023-02-09T10:45:20.497Z,37
2023-02-09T10:46:35.051Z,37
2023-02-09T10:47:25.526Z,37
2023-02-09T10:48:54.341Z,37
2023-02-09T10:49:47.143Z,37
2023-02-09T10:50:34.178Z,37
2023-02-09T10:51:21.021Z,38
2023-02-09T10:52:24.113Z,38
2023-02-09T10:53:41.291Z,38
2023-02-09T10:54:28.790Z,38
2023-02-09T10:56:02.715Z,38
2023-02-09T10:56:50.685Z,38
2023-02-09T10:57:31.585Z,38
2023-02-09T10:58:24.486Z,37
2023-02-09T10:59:28.331Z,38
2023-02-09T11:00:21.352Z,38
2023-02-09T11:01:30.891Z,38
2023-02-09T11:02:21.449Z,38
2023-02-09T11:03:55.748Z,38
2023-02-09T11:04:40.092Z,38
2023-02-09T11:05:27.217Z,37
2023-02-09T11:06:34.822Z,37
2023-02-09T11:07:25.508Z,37
2023-02-09T11:08:26.938Z,37
2023-02-09T11:09:20.232Z,37
2023-02-09T11:11:00.190Z,38
2023-02-09T11:11:42.485Z,37
2023-02-09T11:12:29.074Z,37
2023-02-09T11:13:36.785Z,37
2023-02-09T11:14:30.147Z,38
2023-02-09T11:15:24.185Z,37
2023-02-09T11:16:23.531Z,37
2023-02-09T11:17:59.176Z,37
2023-02-09T11:18:45.968Z,37
2023-02-09T11:19:24.952Z,37
2023-02-09T11:20:36.775Z,37
2023-02-09T11:21:34.896Z,37
2023-02-09T11:22:29.363Z,37
2023-02-09T11:23:20.218Z,37
2023-02-09T11:25:02.309Z,37
2023-02-09T11:25:24.976Z,37
2023-02-09T11:26:36.529Z,37
2023-02-09T11:27:23.860Z,37
2023-02-09T11:28:28.394Z,37
2023-02-09T11:29:31.374Z,37
2023-02-09T11:30:26.276Z,37
2023-02-09T11:31:28.953Z,37
2023-02-09T11:32:24.972Z,37
2023-02-09T11:33:22.078Z,37
2023-02-09T11:34:26.264Z,37
2023-02-09T11:35:27.940Z,37
2023-02-09T11:36:25.533Z,37
2023-02-09T11:37:28.516Z,37
2023-02-09T11:38:21.514Z,37
2023-02-09T11:39:25.379Z,37
2023-02-09T11:40:21.051Z,37
2023-02-09T11:41:27.600Z,37
2023-02-09T11:42:28.498Z,38
2023-02-09T11:43:22.933Z,38
2023-02-09T11:44:31.633Z,38
2023-02-09T11:45:31.143Z,38
2023-02-09T11:46:24.859Z,38
2023-02-09T11:47:23.153Z,38
2023-02-09T11:48:31.263Z,38
2023-02-09T11:49:26.762Z,38
2023-02-09T11:50:22.990Z,38
2023-02-09T11:51:39.978Z,39
2023-02-09T11:52:31.013Z,39
2023-02-09T11:53:29.535Z,39
2023-02-09T11:54:20.817Z,39
2023-02-09T11:55:30.659Z,39
2023-02-09T11:56:21.749Z,39
2023-02-09T11:57:22.846Z,39
2023-02-09T11:58:20.648Z,39
2023-02-09T11:59:28.547Z,40
2023-02-09T12:00:28.598Z,40
2023-02-09T12:01:21.269Z,40
2023-02-09T12:02:36.869Z,40
2023-02-09T12:03:25.668Z,40
2023-02-09T12:04:24.301Z,40
2023-02-09T12:05:33.096Z,40
2023-02-09T12:06:33.416Z,40
2023-02-09T12:07:24.659Z,40
2023-02-09T12:08:26.223Z,40
2023-02-09T12:09:31.076Z,40
2023-02-09T12:10:29.817Z,40
2023-02-09T12:11:22.631Z,41
2023-02-09T12:12:32.987Z,41
2023-02-09T12:13:34.749Z,41
2023-02-09T12:14:21.441Z,41
2023-02-09T12:15:21.738Z,41
2023-02-09T12:16:22.284Z,41
2023-02-09T12:17:29.659Z,41
2023-02-09T12:18:24.634Z,42
2023-02-09T12:19:33.289Z,42
2023-02-09T12:20:31.387Z,42
2023-02-09T12:21:27.522Z,42
2023-02-09T12:22:20.642Z,42
2023-02-09T12:23:26.231Z,42
2023-02-09T12:24:27.491Z,42
2023-02-09T12:25:19.382Z,42
2023-02-09T12:26:32.818Z,42
2023-02-09T12:27:33.441Z,42
2023-02-09T12:28:27.839Z,42
2023-02-09T12:29:21.380Z,42
2023-02-09T12:30:28.372Z,42
2023-02-09T12:31:20.673Z,42
2023-02-09T12:32:23.521Z,42
2023-02-09T12:33:34.219Z,42
2023-02-09T12:34:28.845Z,42
2023-02-09T12:35:26.122Z,42
2023-02-09T12:36:20.990Z,42
2023-02-09T12:37:31.333Z,42
2023-02-09T12:38:28.484Z,42
2023-02-09T12:39:26.986Z,42
2023-02-09T12:40:32.766Z,42
2023-02-09T12:41:29.955Z,42
2023-02-09T12:42:24.972Z,42
2023-02-09T12:43:21.227Z,42
2023-02-09T12:44:36.267Z,42
2023-02-09T12:45:29.889Z,42
2023-02-09T12:46:25.216Z,42
2023-02-09T12:47:35.255Z,42
2023-02-09T12:48:29.017Z,42
2023-02-09T12:49:26.947Z,41
2023-02-09T12:50:23.675Z,42
2023-02-09T12:51:30.743Z,42
2023-02-09T12:52:29.500Z,42
2023-02-09T12:53:26.766Z,42
2023-02-09T12:54:23.970Z,42
2023-02-09T12:55:30.278Z,42
2023-02-09T12:56:26.606Z,42
2023-02-09T12:57:20.879Z,42
2023-02-09T12:58:30.571Z,42
2023-02-09T12:59:28.428Z,42
2023-02-09T13:00:23.565Z,42
2023-02-09T13:01:23.559Z,41
2023-02-09T13:02:28.326Z,41
2023-02-09T13:03:26.496Z,41
2023-02-09T13:04:21.097Z,41
2023-02-09T13:05:31.835Z,42
2023-02-09T13:06:28.329Z,42
2023-02-09T13:07:22.768Z,41
2023-02-09T13:08:26.344Z,41
2023-02-09T13:09:23.023Z,41
2023-02-09T13:10:24.646Z,41
2023-02-09T13:11:21.693Z,41
2023-02-09T13:12:21.223Z,41
2023-02-09T13:13:28.359Z,41
2023-02-09T13:14:23.522Z,41
2023-02-09T13:15:34.939Z,41
2023-02-09T13:16:23.387Z,41
2023-02-09T13:17:25.530Z,40
2023-02-09T13:18:22.033Z,40
2023-02-09T13:19:22.583Z,40
2023-02-09T13:20:29.119Z,40
2023-02-09T13:21:22.697Z,40
2023-02-09T13:22:34.571Z,40
2023-02-09T13:23:34.116Z,40
2023-02-09T13:24:20.472Z,39
2023-02-09T13:25:20.742Z,39
2023-02-09T13:26:27.113Z,40
2023-02-09T13:27:27.842Z,40
2023-02-09T13:28:24.950Z,39
2023-02-09T13:29:35.154Z,39
2023-02-09T13:30:20.555Z,39
2023-02-09T13:31:27.676Z,39
2023-02-09T13:32:22.277Z,39
2023-02-09T13:33:31.679Z,39
2023-02-09T13:34:27.780Z,39
2023-02-09T13:35:23.182Z,38
2023-02-09T13:36:32.929Z,38
2023-02-09T13:37:25.659Z,38
2023-02-09T13:38:25.098Z,37
2023-02-09T13:39:21.120Z,37
2023-02-09T13:40:20.746Z,37
2023-02-09T13:41:27.739Z,37
2023-02-09T13:42:24.660Z,28
2023-02-09T13:43:34.673Z,9
2023-02-09T13:44:28.841Z,9
2023-02-09T13:45:26.733Z,11
2023-02-09T13:46:21.079Z,9
2023-02-09T13:47:23.485Z,9
2023-02-09T13:48:24.729Z,15
2023-02-09T13:49:23.765Z,14
2023-02-09T13:50:32.899Z,10
2023-02-09T13:51:31.531Z,17
2023-02-09T13:52:25.271Z,19
2023-02-09T13:53:23.420Z,10
2023-02-09T13:54:22.400Z,16
2023-02-09T13:55:21.084Z,35
2023-02-09T13:56:23.685Z,35
2023-02-09T13:57:34.400Z,24
2023-02-09T13:58:30.427Z,13
2023-02-09T13:59:19.705Z,10
2023-02-09T14:00:22.400Z,25
2023-02-09T14:01:28.353Z,28
2023-02-09T14:02:27.866Z,25
2023-02-09T14:03:23.710Z,10
2023-02-09T14:04:35.048Z,25
2023-02-09T14:05:28.729Z,10
2023-02-09T14:06:24.800Z,20
2023-02-09T14:07:21.455Z,21
2023-02-09T14:08:33.277Z,34
2023-02-09T14:09:23.166Z,34
2023-02-09T14:10:22.768Z,27
2023-02-09T14:11:49.101Z,11
2023-02-09T14:12:30.324Z,22
2023-02-09T14:13:25.763Z,28
2023-02-09T14:14:20.815Z,32
2023-02-09T14:15:35.954Z,32
2023-02-09T14:16:28.062Z,32
2023-02-09T14:17:25.298Z,30
2023-02-09T14:18:19.358Z,31
2023-02-09T14:19:31.600Z,28
2023-02-09T14:20:24.676Z,31
2023-02-09T14:21:20.810Z,31
2023-02-09T14:22:31.170Z,31
2023-02-09T14:23:29.647Z,29
2023-02-09T14:24:24.371Z,27
2023-02-09T14:25:25.807Z,30
2023-02-09T14:26:30.762Z,30
2023-02-09T14:27:25.168Z,29
2023-02-09T14:28:21.344Z,29
2023-02-09T14:29:32.725Z,29
2023-02-09T14:30:27.224Z,28
2023-02-09T14:31:29.762Z,28
2023-02-09T14:32:31.851Z,29
2023-02-09T14:33:22.669Z,29
2023-02-09T14:34:25.057Z,29
2023-02-09T14:35:21.815Z,28
2023-02-09T14:36:32.534Z,28
2023-02-09T14:37:26.962Z,27
2023-02-09T14:38:24.548Z,27
2023-02-09T14:39:25.202Z,27
2023-02-09T14:40:26.033Z,24
2023-02-09T14:41:25.134Z,25
2023-02-09T14:42:21.155Z,26
2023-02-09T14:43:32.698Z,27
2023-02-09T14:44:27.106Z,26
2023-02-09T14:45:24.446Z,27
2023-02-09T14:46:19.924Z,27
2023-02-09T14:47:22.124Z,27
2023-02-09T14:48:24.994Z,26
2023-02-09T14:49:21.176Z,26